Time;durP1;ratioP1;P1;durP2;ratioP2;P2;SDS_P1;SDS_P2;PMS_P1;PMS_P2;Temp;Humidity;BMP_temperature;BMP_pressure;BME280_temperature;BME280_humidity;BME280_pressure;Samples;Min_cycle;Max_cycle;Signal;HPM_P1;HPM_P2
2023/12/15 00:00:18;;;;;;;24.87;9.27;;;4.60;99.90;;;;;;5092332;28;20024;-51
2023/12/15 00:02:45;;;;;;;24.17;9.27;;;4.70;99.90;;;;;;5092474;28;20406;-55
2023/12/15 00:05:11;;;;;;;23.80;9.07;;;4.70;99.90;;;;;;5092281;28;20047;-55
2023/12/15 00:07:36;;;;;;;21.30;7.40;;;4.80;99.90;;;;;;5092209;28;20095;-54
2023/12/15 00:10:03;;;;;;;19.70;8.33;;;4.80;99.90;;;;;;5091020;28;20028;-55
2023/12/15 00:12:28;;;;;;;19.63;8.07;;;4.70;99.90;;;;;;5091392;28;20139;-55
2023/12/15 00:14:54;;;;;;;22.47;8.57;;;4.90;99.90;;;;;;5092134;28;20119;-55
2023/12/15 00:17:20;;;;;;;23.97;9.87;;;4.90;99.90;;;;;;5092092;28;20024;-54
2023/12/15 00:19:45;;;;;;;20.00;8.13;;;4.90;99.90;;;;;;5092003;28;20024;-54
2023/12/15 00:22:11;;;;;;;21.13;8.80;;;5.00;99.90;;;;;;5092068;28;20078;-55
2023/12/15 00:24:36;;;;;;;17.77;7.73;;;5.00;99.90;;;;;;5092116;28;20028;-55
2023/12/15 00:27:02;;;;;;;19.80;8.53;;;5.00;99.90;;;;;;5090790;28;20064;-54
2023/12/15 00:29:28;;;;;;;18.67;8.37;;;5.10;99.90;;;;;;5091875;28;20038;-55
2023/12/15 00:31:53;;;;;;;24.87;8.07;;;5.20;99.90;;;;;;5091979;28;20024;-53
2023/12/15 00:34:19;;;;;;;21.50;8.67;;;5.20;99.90;;;;;;5091895;28;20558;-54
2023/12/15 00:36:45;;;;;;;20.77;9.33;;;5.30;99.90;;;;;;5091850;28;20068;-51
2023/12/15 00:39:10;;;;;;;23.23;9.37;;;5.30;99.90;;;;;;5091761;28;20085;-52
2023/12/15 00:41:36;;;;;;;21.40;8.30;;;5.20;99.90;;;;;;5091853;28;20082;-52
2023/12/15 00:44:05;;;;;;;20.30;8.03;;;5.10;99.90;;;;;;5091843;28;20349;-55
2023/12/15 00:46:31;;;;;;;21.02;8.75;;;5.20;99.90;;;;;;5091758;28;20036;-52
2023/12/15 00:48:57;;;;;;;19.93;8.73;;;5.20;99.90;;;;;;5091627;28;20032;-54
2023/12/15 00:51:22;;;;;;;19.43;8.47;;;5.20;99.90;;;;;;5091703;28;20035;-54
2023/12/15 00:53:48;;;;;;;22.97;9.13;;;5.30;99.90;;;;;;5091703;28;20468;-55
2023/12/15 00:56:13;;;;;;;23.90;9.70;;;5.30;99.90;;;;;;5091588;28;20111;-53
2023/12/15 00:58:39;;;;;;;26.57;8.67;;;5.30;99.90;;;;;;5091689;28;20066;-51
2023/12/15 01:01:06;;;;;;;21.43;8.37;;;5.20;99.90;;;;;;5091600;28;20016;-50
2023/12/15 01:03:31;;;;;;;21.63;9.33;;;5.30;99.90;;;;;;5091605;28;20031;-54
2023/12/15 01:05:57;;;;;;;23.53;9.10;;;5.20;99.90;;;;;;5091501;28;20028;-55
2023/12/15 01:08:22;;;;;;;21.40;9.37;;;5.20;99.90;;;;;;5091877;28;20031;-55
2023/12/15 01:10:48;;;;;;;22.57;9.53;;;5.20;99.90;;;;;;5091499;28;20024;-54
2023/12/15 01:13:14;;;;;;;21.07;8.80;;;5.20;99.90;;;;;;5091415;28;20489;-53
2023/12/15 01:15:40;;;;;;;22.57;8.30;;;5.30;99.90;;;;;;5091690;28;20097;-55
2023/12/15 01:18:06;;;;;;;21.03;8.23;;;5.40;99.90;;;;;;5091338;28;20035;-55
2023/12/15 01:20:31;;;;;;;23.07;8.10;;;5.30;99.90;;;;;;5091701;28;20496;-55
2023/12/15 01:22:57;;;;;;;22.70;7.83;;;5.30;99.90;;;;;;5091927;28;20062;-51
2023/12/15 01:25:22;;;;;;;21.77;8.47;;;5.30;99.90;;;;;;5095524;28;20464;-54
2023/12/15 01:27:48;;;;;;;19.77;7.77;;;5.30;99.90;;;;;;5093996;28;20024;-55
2023/12/15 01:30:14;;;;;;;22.50;9.00;;;5.30;99.90;;;;;;5095172;28;20031;-54
2023/12/15 01:32:40;;;;;;;18.77;7.87;;;5.30;99.90;;;;;;5095180;28;20473;-54
2023/12/15 01:35:06;;;;;;;20.40;8.20;;;5.30;99.90;;;;;;5095030;28;20028;-55
2023/12/15 01:37:31;;;;;;;24.47;9.10;;;5.30;99.90;;;;;;5095059;28;20118;-55
2023/12/15 01:39:57;;;;;;;18.07;7.63;;;5.50;99.90;;;;;;5095061;28;20111;-53
2023/12/15 01:42:23;;;;;;;19.63;8.27;;;5.50;99.90;;;;;;5095009;28;20051;-54
2023/12/15 01:44:48;;;;;;;19.33;7.33;;;5.50;99.90;;;;;;5095121;28;20028;-52
2023/12/15 01:47:17;;;;;;;22.23;8.83;;;5.50;99.90;;;;;;5094772;28;20093;-52
2023/12/15 01:49:45;;;;;;;17.30;7.82;;;5.50;99.90;;;;;;5094842;28;20093;-55
2023/12/15 01:52:10;;;;;;;16.47;7.07;;;5.50;99.90;;;;;;5093537;28;20077;-53
2023/12/15 01:54:36;;;;;;;19.43;7.47;;;5.50;99.90;;;;;;5095036;28;20461;-52
2023/12/15 01:57:02;;;;;;;18.17;7.73;;;5.60;99.90;;;;;;5094783;28;20088;-52
2023/12/15 01:59:41;;;;;;;18.03;8.03;;;5.50;99.90;;;;;;5094666;28;20024;-55
2023/12/15 02:02:06;;;;;;;21.92;7.85;;;5.50;99.90;;;;;;5094654;28;20028;-53
2023/12/15 02:04:32;;;;;;;18.60;7.63;;;5.60;99.90;;;;;;5094609;28;20031;-52
2023/12/15 02:06:57;;;;;;;15.93;7.10;;;5.60;99.90;;;;;;5094455;28;20043;-55
2023/12/15 02:09:23;;;;;;;18.23;7.30;;;5.60;99.90;;;;;;5094478;28;20032;-55
2023/12/15 02:11:49;;;;;;;20.93;8.10;;;5.70;99.90;;;;;;5094399;28;20040;-55
2023/12/15 02:14:14;;;;;;;22.70;8.30;;;5.60;99.90;;;;;;5094375;28;20032;-54
2023/12/15 02:16:40;;;;;;;19.77;7.43;;;5.70;99.90;;;;;;5094332;28;20035;-54
2023/12/15 02:19:06;;;;;;;17.13;7.73;;;5.70;99.90;;;;;;5094241;28;20071;-54
2023/12/15 02:21:33;;;;;;;17.20;7.33;;;5.70;99.90;;;;;;5094305;28;20039;-55
2023/12/15 02:23:59;;;;;;;21.37;7.73;;;5.70;99.90;;;;;;5094314;28;20116;-54
2023/12/15 02:26:24;;;;;;;20.03;7.63;;;5.70;99.90;;;;;;5094103;28;20453;-55
2023/12/15 02:28:50;;;;;;;20.53;7.67;;;5.70;99.90;;;;;;5094200;28;20032;-53
2023/12/15 02:31:17;;;;;;;18.27;8.00;;;5.70;99.90;;;;;;5094023;28;20036;-55
2023/12/15 02:33:42;;;;;;;16.07;7.40;;;5.60;99.90;;;;;;5092627;28;20472;-54
2023/12/15 02:36:08;;;;;;;16.90;7.77;;;5.60;99.90;;;;;;5093042;28;20031;-54
2023/12/15 02:38:33;;;;;;;17.47;7.00;;;5.70;99.90;;;;;;5093918;28;20397;-51
2023/12/15 02:40:59;;;;;;;15.67;7.87;;;5.70;99.90;;;;;;5093908;28;20035;-53
2023/12/15 02:43:25;;;;;;;17.60;8.57;;;5.80;99.90;;;;;;5093843;28;20028;-54
2023/12/15 02:45:50;;;;;;;16.63;6.80;;;5.80;99.90;;;;;;5093923;28;20032;-52
2023/12/15 02:48:16;;;;;;;17.03;7.10;;;5.80;99.90;;;;;;5093626;28;20035;-55
2023/12/15 02:50:42;;;;;;;17.17;7.73;;;5.80;99.90;;;;;;5093647;28;20028;-55
2023/12/15 02:53:08;;;;;;;20.83;7.83;;;5.90;99.90;;;;;;5093808;28;20039;-53
2023/12/15 02:55:34;;;;;;;20.03;7.30;;;5.80;99.90;;;;;;5093589;28;20031;-51
2023/12/15 02:57:59;;;;;;;16.50;7.83;;;5.80;99.90;;;;;;5092189;28;20024;-55
2023/12/15 03:00:25;;;;;;;15.17;6.40;;;5.80;99.90;;;;;;5093500;28;20035;-52
2023/12/15 03:02:50;;;;;;;17.93;7.90;;;5.70;99.90;;;;;;5093521;28;20043;-55
2023/12/15 03:05:16;;;;;;;15.70;7.37;;;5.80;99.90;;;;;;5093517;28;20145;-54
2023/12/15 03:07:41;;;;;;;15.10;6.73;;;5.80;99.90;;;;;;5093295;28;20373;-54
2023/12/15 03:10:07;;;;;;;16.27;6.90;;;5.70;99.90;;;;;;5093322;28;20028;-54
2023/12/15 03:12:33;;;;;;;16.23;7.60;;;5.70;99.90;;;;;;5093213;28;20100;-55
2023/12/15 03:14:59;;;;;;;20.53;7.37;;;5.70;99.90;;;;;;5093188;28;20027;-55
2023/12/15 03:17:24;;;;;;;18.03;7.30;;;5.70;99.90;;;;;;5092147;28;20082;-55
2023/12/15 03:19:50;;;;;;;18.37;7.03;;;5.70;99.90;;;;;;5092123;28;20035;-55
2023/12/15 03:22:16;;;;;;;17.60;7.10;;;5.70;99.90;;;;;;5093191;28;20036;-55
2023/12/15 03:24:41;;;;;;;19.83;7.40;;;5.70;99.90;;;;;;5093138;28;20035;-56
2023/12/15 03:27:07;;;;;;;19.57;7.40;;;5.70;99.90;;;;;;5092977;28;20036;-51
2023/12/15 03:29:33;;;;;;;24.60;7.50;;;5.70;99.90;;;;;;5093389;28;20062;-55
2023/12/15 03:31:58;;;;;;;20.53;8.47;;;5.70;99.90;;;;;;5092926;28;20036;-54
2023/12/15 03:34:24;;;;;;;16.63;7.33;;;5.70;99.90;;;;;;5092870;28;20066;-53
2023/12/15 03:36:49;;;;;;;21.80;7.90;;;5.80;99.90;;;;;;5092761;28;20074;-52
2023/12/15 03:39:15;;;;;;;18.67;7.13;;;5.80;99.90;;;;;;5092763;28;20020;-54
2023/12/15 03:41:40;;;;;;;19.27;8.47;;;5.80;99.90;;;;;;5092795;28;20463;-55
2023/12/15 03:44:06;;;;;;;18.23;7.67;;;5.90;99.90;;;;;;5092646;28;20035;-54
2023/12/15 03:46:32;;;;;;;16.87;7.73;;;5.90;99.90;;;;;;5092492;28;20484;-52
2023/12/15 03:48:57;;;;;;;22.17;8.70;;;5.90;99.90;;;;;;5092590;28;20032;-53
2023/12/15 03:51:23;;;;;;;20.00;8.33;;;6.00;99.90;;;;;;5092732;28;20028;-53
2023/12/15 03:53:48;;;;;;;21.27;8.47;;;6.00;99.90;;;;;;5092542;28;20451;-53
2023/12/15 03:56:23;;;;;;;20.93;8.07;;;6.00;99.90;;;;;;5092484;28;20107;-51
2023/12/15 03:58:49;;;;;;;21.67;8.43;;;5.90;99.90;;;;;;5092489;28;20028;-51
2023/12/15 04:01:14;;;;;;;21.37;8.70;;;5.90;99.90;;;;;;5092325;28;20389;-52
2023/12/15 04:03:40;;;;;;;20.50;8.37;;;5.90;99.90;;;;;;5092439;28;20082;-52
2023/12/15 04:06:08;;;;;;;19.57;7.67;;;5.90;99.90;;;;;;5092386;28;20027;-54
2023/12/15 04:08:34;;;;;;;18.87;7.87;;;5.90;99.90;;;;;;5092287;28;20055;-53
2023/12/15 04:11:00;;;;;;;20.47;8.40;;;5.90;99.90;;;;;;5092002;28;20031;-54
2023/12/15 04:13:26;;;;;;;19.33;7.63;;;6.00;99.90;;;;;;5092240;28;20028;-54
2023/12/15 04:15:51;;;;;;;19.33;8.43;;;6.00;99.90;;;;;;5092215;28;20446;-54
2023/12/15 04:18:19;;;;;;;19.40;8.87;;;6.00;99.90;;;;;;5092132;28;20127;-56
2023/12/15 04:20:44;;;;;;;21.27;8.20;;;6.00;99.90;;;;;;5092060;28;20048;-53
2023/12/15 04:23:10;;;;;;;16.57;7.50;;;5.90;99.90;;;;;;5092147;28;20408;-53
2023/12/15 04:25:35;;;;;;;20.57;7.80;;;5.90;99.90;;;;;;5092113;28;20024;-51
2023/12/15 04:28:01;;;;;;;18.07;7.87;;;5.90;99.90;;;;;;5091923;28;20455;-54
2023/12/15 04:30:27;;;;;;;20.80;8.23;;;6.00;99.90;;;;;;5091860;28;20020;-50
2023/12/15 04:32:52;;;;;;;21.20;8.37;;;6.00;99.90;;;;;;5092023;28;20038;-54
2023/12/15 04:35:19;;;;;;;18.93;8.80;;;6.00;99.90;;;;;;5092260;28;20133;-55
2023/12/15 04:37:47;;;;;;;21.90;8.90;;;6.00;99.90;;;;;;5091806;28;20477;-51
2023/12/15 04:40:14;;;;;;;18.77;8.87;;;6.00;99.90;;;;;;5091826;28;20023;-55
2023/12/15 04:42:40;;;;;;;25.77;8.67;;;6.00;99.90;;;;;;5091907;28;20997;-54
2023/12/15 04:45:07;;;;;;;21.17;7.60;;;6.10;99.90;;;;;;5091894;28;20024;-53
2023/12/15 04:47:33;;;;;;;23.13;9.90;;;6.00;99.90;;;;;;5091689;28;20495;-54
2023/12/15 04:49:59;;;;;;;22.00;8.90;;;6.00;99.90;;;;;;5091799;28;20119;-54
2023/12/15 04:52:24;;;;;;;20.80;8.90;;;6.10;99.90;;;;;;5091763;28;20031;-55
2023/12/15 04:54:50;;;;;;;21.53;8.53;;;6.10;99.90;;;;;;5091663;28;20081;-56
2023/12/15 04:57:16;;;;;;;22.50;9.40;;;6.10;99.90;;;;;;5091960;28;20509;-55
2023/12/15 04:59:41;;;;;;;21.03;9.13;;;6.10;99.90;;;;;;5095105;28;20028;-55
2023/12/15 05:02:08;;;;;;;22.03;9.40;;;6.10;99.90;;;;;;5095849;28;20028;-54
2023/12/15 05:04:34;;;;;;;19.97;8.23;;;6.10;99.90;;;;;;5096033;28;20032;-52
2023/12/15 05:07:01;;;;;;;22.37;8.73;;;6.10;99.90;;;;;;5095682;28;20040;-53
2023/12/15 05:09:27;;;;;;;23.57;9.37;;;6.10;99.90;;;;;;5096029;28;20160;-51
2023/12/15 05:11:54;;;;;;;23.77;9.93;;;6.10;99.90;;;;;;5095575;28;20036;-52
2023/12/15 05:14:19;;;;;;;22.17;8.87;;;6.10;99.90;;;;;;5095510;28;20388;-55
2023/12/15 05:16:45;;;;;;;27.30;9.30;;;6.20;99.90;;;;;;5095490;28;20029;-53
2023/12/15 05:19:11;;;;;;;24.50;9.30;;;6.20;99.90;;;;;;5094283;28;20028;-54
2023/12/15 05:21:36;;;;;;;24.63;10.50;;;6.20;99.90;;;;;;5095446;28;20327;-52
2023/12/15 05:24:02;;;;;;;23.40;9.70;;;6.20;99.90;;;;;;5095391;28;20039;-53
2023/12/15 05:26:28;;;;;;;24.30;8.87;;;6.20;99.90;;;;;;5095278;28;20032;-54
2023/12/15 05:28:54;;;;;;;27.60;10.30;;;6.20;99.90;;;;;;5095308;28;20028;-55
2023/12/15 05:31:20;;;;;;;26.53;9.40;;;6.30;99.90;;;;;;5095624;28;20028;-55
2023/12/15 05:33:45;;;;;;;25.70;10.23;;;6.30;99.90;;;;;;5095298;28;20111;-56
2023/12/15 05:36:20;;;;;;;26.07;9.43;;;6.30;99.90;;;;;;5095103;28;20028;-55
2023/12/15 05:38:50;;;;;;;22.33;8.83;;;6.40;99.90;;;;;;5095080;28;20048;-50
2023/12/15 05:41:16;;;;;;;25.65;9.80;;;6.40;99.90;;;;;;5095195;28;20043;-54
2023/12/15 05:43:41;;;;;;;23.00;8.50;;;6.40;99.90;;;;;;5095022;28;20020;-51
2023/12/15 05:46:07;;;;;;;25.47;9.27;;;6.40;99.90;;;;;;5094960;28;20020;-54
2023/12/15 05:48:33;;;;;;;27.83;9.80;;;6.40;99.90;;;;;;5094855;28;20380;-51
2023/12/15 05:50:58;;;;;;;28.50;9.70;;;6.50;99.90;;;;;;5094733;28;20024;-51
2023/12/15 05:53:24;;;;;;;25.73;10.10;;;6.50;99.90;;;;;;5094898;28;20031;-52
2023/12/15 05:55:52;;;;;;;29.80;10.43;;;6.50;99.90;;;;;;5094732;28;20035;-50
2023/12/15 05:58:17;;;;;;;29.60;9.77;;;6.60;99.90;;;;;;5094629;28;20036;-55
2023/12/15 06:00:43;;;;;;;26.60;10.30;;;6.60;99.90;;;;;;5094654;28;20392;-52
2023/12/15 06:03:08;;;;;;;27.83;9.60;;;6.70;99.90;;;;;;5095193;28;20055;-55
2023/12/15 06:05:34;;;;;;;29.87;10.27;;;6.60;99.90;;;;;;5094681;28;20032;-54
2023/12/15 06:08:03;;;;;;;30.17;9.57;;;6.60;99.90;;;;;;5094476;28;20032;-55
2023/12/15 06:10:29;;;;;;;24.67;8.93;;;6.70;99.90;;;;;;5093267;28;20621;-54
2023/12/15 06:12:54;;;;;;;29.30;9.93;;;6.70;99.90;;;;;;5094508;28;20124;-56
2023/12/15 06:15:20;;;;;;;33.67;11.10;;;6.70;99.90;;;;;;5094452;28;20032;-55
2023/12/15 06:17:45;;;;;;;30.13;10.40;;;6.70;99.90;;;;;;5094392;28;20400;-53
2023/12/15 06:20:14;;;;;;;33.23;10.57;;;6.70;99.90;;;;;;5094254;28;20031;-55
2023/12/15 06:22:40;;;;;;;30.13;9.80;;;6.80;99.90;;;;;;5094452;28;20115;-52
2023/12/15 06:25:07;;;;;;;32.07;10.10;;;6.80;99.90;;;;;;5094341;28;20135;-55
2023/12/15 06:27:33;;;;;;;28.67;9.93;;;6.70;99.90;;;;;;5094371;28;20135;-56
2023/12/15 06:29:59;;;;;;;29.40;10.60;;;6.80;99.90;;;;;;5094286;28;20028;-56
2023/12/15 06:32:24;;;;;;;26.37;9.87;;;6.70;99.90;;;;;;5094136;28;20388;-50
2023/12/15 06:34:50;;;;;;;26.50;10.13;;;6.70;99.90;;;;;;5093982;28;20061;-54
2023/12/15 06:37:15;;;;;;;24.70;9.47;;;6.70;99.90;;;;;;5094015;28;20034;-55
2023/12/15 06:39:41;;;;;;;33.33;10.40;;;6.70;99.90;;;;;;5092796;28;20454;-55
2023/12/15 06:42:06;;;;;;;33.63;9.83;;;6.60;99.90;;;;;;5093862;28;20024;-55
2023/12/15 06:44:32;;;;;;;28.43;9.70;;;6.70;99.90;;;;;;5094006;28;20039;-55
2023/12/15 06:46:58;;;;;;;30.23;10.13;;;6.70;99.90;;;;;;5093760;28;20024;-56
2023/12/15 06:49:30;;;;;;;28.27;9.30;;;6.70;99.90;;;;;;5093567;28;20395;-56
2023/12/15 06:52:00;;;;;;;32.33;11.07;;;6.70;99.90;;;;;;5093794;28;20043;-56
2023/12/15 06:54:25;;;;;;;25.90;10.30;;;6.70;99.90;;;;;;5093694;28;20421;-55
2023/12/15 06:56:51;;;;;;;33.97;10.03;;;6.70;99.90;;;;;;5093540;28;20127;-55
2023/12/15 06:59:17;;;;;;;25.47;8.83;;;6.70;99.90;;;;;;5092390;28;20384;-54
2023/12/15 07:01:43;;;;;;;32.43;9.07;;;6.70;99.90;;;;;;5093470;28;20034;-56
2023/12/15 07:04:08;;;;;;;25.70;9.70;;;6.70;99.90;;;;;;5093466;28;20599;-55
2023/12/15 07:06:34;;;;;;;29.90;9.17;;;6.80;99.90;;;;;;5093399;28;20081;-56
2023/12/15 07:09:00;;;;;;;29.77;9.63;;;6.70;99.90;;;;;;5093319;28;20028;-54
2023/12/15 07:11:25;;;;;;;27.77;10.00;;;6.70;99.90;;;;;;5093154;28;20400;-55
2023/12/15 07:13:51;;;;;;;27.03;9.00;;;6.70;99.90;;;;;;5093267;28;20066;-55
2023/12/15 07:16:17;;;;;;;30.70;9.73;;;6.80;99.90;;;;;;5093214;28;20024;-52
2023/12/15 07:18:43;;;;;;;34.67;10.50;;;6.80;99.90;;;;;;5093593;28;20385;-56
2023/12/15 07:21:09;;;;;;;31.43;9.83;;;6.90;99.90;;;;;;5092824;28;20072;-55
2023/12/15 07:23:34;;;;;;;31.40;9.23;;;6.90;99.90;;;;;;5093208;28;20111;-53
2023/12/15 07:26:00;;;;;;;29.60;11.27;;;6.90;99.90;;;;;;5093020;28;20051;-55
2023/12/15 07:28:26;;;;;;;34.63;10.83;;;6.90;99.90;;;;;;5093018;28;20366;-56
2023/12/15 07:30:52;;;;;;;34.03;10.47;;;6.90;99.90;;;;;;5092977;28;20031;-56
2023/12/15 07:33:17;;;;;;;34.17;10.13;;;6.90;99.90;;;;;;5092862;28;20065;-52
2023/12/15 07:35:43;;;;;;;29.23;9.70;;;7.00;99.90;;;;;;5091613;28;20480;-54
2023/12/15 07:38:09;;;;;;;34.87;10.40;;;7.00;99.90;;;;;;5091454;28;20028;-54
2023/12/15 07:40:35;;;;;;;32.07;10.57;;;6.90;99.90;;;;;;5092675;28;20028;-54
2023/12/15 07:43:01;;;;;;;33.90;10.67;;;7.00;99.90;;;;;;5092839;28;20024;-56
2023/12/15 07:45:27;;;;;;;35.10;10.63;;;7.00;99.90;;;;;;5091433;28;20035;-54
2023/12/15 07:47:53;;;;;;;33.07;9.87;;;7.00;99.90;;;;;;5092490;28;20024;-55
2023/12/15 07:50:19;;;;;;;37.10;10.57;;;6.90;99.90;;;;;;5092549;28;20116;-55
2023/12/15 07:52:45;;;;;;;29.00;10.63;;;6.90;99.90;;;;;;5092648;28;20059;-55
2023/12/15 07:55:11;;;;;;;35.23;11.13;;;7.00;99.90;;;;;;5092561;28;20522;-55
2023/12/15 07:57:37;;;;;;;35.53;10.40;;;7.00;99.90;;;;;;5092474;28;20473;-55
2023/12/15 08:00:05;;;;;;;35.80;11.80;;;7.10;99.90;;;;;;5092446;28;20464;-55
2023/12/15 08:02:37;;;;;;;33.87;10.40;;;7.10;99.90;;;;;;5092479;28;20039;-55
2023/12/15 08:05:03;;;;;;;35.97;12.40;;;7.10;99.90;;;;;;5092386;28;20032;-55
2023/12/15 08:07:28;;;;;;;39.63;10.73;;;7.10;99.90;;;;;;5092235;28;20036;-55
2023/12/15 08:09:54;;;;;;;38.77;12.60;;;7.10;99.90;;;;;;5092197;28;20044;-51
2023/12/15 08:12:20;;;;;;;30.87;10.07;;;7.20;99.90;;;;;;5090958;28;20051;-54
2023/12/15 08:14:45;;;;;;;36.90;11.47;;;7.20;99.90;;;;;;5092186;28;20028;-54
2023/12/15 08:17:11;;;;;;;37.57;12.47;;;7.20;99.90;;;;;;5092181;28;20442;-54
2023/12/15 08:19:36;;;;;;;43.87;12.90;;;7.20;99.90;;;;;;5090895;28;20034;-55
2023/12/15 08:22:02;;;;;;;39.87;12.33;;;7.20;99.90;;;;;;5092114;28;20051;-54
2023/12/15 08:24:28;;;;;;;38.27;12.00;;;7.20;99.90;;;;;;5092096;28;20400;-54
2023/12/15 08:26:54;;;;;;;48.47;11.53;;;7.20;99.90;;;;;;5091921;28;20044;-55
2023/12/15 08:29:20;;;;;;;42.60;12.10;;;7.20;99.90;;;;;;5091936;28;20024;-54
2023/12/15 08:31:46;;;;;;;43.20;10.60;;;7.20;99.90;;;;;;5092231;28;20392;-54
2023/12/15 08:34:12;;;;;;;41.83;11.90;;;7.30;99.90;;;;;;5091364;28;20051;-54
2023/12/15 08:36:37;;;;;;;44.47;11.40;;;7.30;99.90;;;;;;5091787;28;20472;-54
2023/12/15 08:41:38;;;;;;;42.33;12.47;;;7.30;99.90;;;;;;5030343;28;20455;-60
2023/12/15 08:44:03;;;;;;;42.17;11.03;;;7.40;99.90;;;;;;5031803;28;20116;-60
2023/12/15 08:46:31;;;;;;;47.07;12.60;;;7.40;99.90;;;;;;5031702;28;20029;-59
2023/12/15 08:48:56;;;;;;;40.67;11.40;;;7.50;99.90;;;;;;5036118;28;20032;-60
2023/12/15 08:51:22;;;;;;;39.37;12.00;;;7.50;99.90;;;;;;5051565;28;20029;-61
2023/12/15 08:53:47;;;;;;;40.40;11.63;;;7.60;99.90;;;;;;5051528;28;20071;-61
2023/12/15 08:56:13;;;;;;;40.73;12.33;;;7.60;99.90;;;;;;5051476;28;20025;-61
2023/12/15 08:58:39;;;;;;;39.97;11.23;;;7.60;99.90;;;;;;5051454;28;20057;-61
2023/12/15 09:01:04;;;;;;;38.03;12.03;;;7.60;99.90;;;;;;5051619;28;20071;-60
2023/12/15 09:03:30;;;;;;;43.30;11.97;;;7.60;99.90;;;;;;5051940;28;20474;-61
2023/12/15 09:05:55;;;;;;;44.53;12.13;;;7.60;99.90;;;;;;5051496;28;20477;-60
2023/12/15 09:08:21;;;;;;;43.00;12.13;;;7.70;99.90;;;;;;5051180;28;20040;-61
2023/12/15 09:10:50;;;;;;;45.20;13.10;;;7.80;99.90;;;;;;5051378;28;20472;-61
2023/12/15 09:13:19;;;;;;;37.40;11.77;;;7.80;99.90;;;;;;5051373;28;20101;-61
2023/12/15 09:15:45;;;;;;;44.55;11.85;;;7.80;99.90;;;;;;5051364;28;20036;-61
2023/12/15 09:18:10;;;;;;;43.07;12.40;;;7.80;99.90;;;;;;5051227;28;20029;-61
2023/12/15 09:20:36;;;;;;;41.63;12.33;;;7.80;99.90;;;;;;5051292;28;20021;-61
2023/12/15 09:23:09;;;;;;;39.83;12.30;;;7.70;99.90;;;;;;5051612;28;20025;-61
2023/12/15 09:25:36;;;;;;;41.37;11.37;;;7.70;99.90;;;;;;5051365;28;20120;-61
2023/12/15 09:28:03;;;;;;;46.77;12.20;;;7.80;99.90;;;;;;5051084;28;20116;-61
2023/12/15 09:30:29;;;;;;;45.47;12.63;;;7.80;99.90;;;;;;5051066;28;20032;-61
2023/12/15 09:32:55;;;;;;;41.40;12.17;;;7.80;99.90;;;;;;5051265;28;20037;-61
2023/12/15 09:35:20;;;;;;;40.97;12.43;;;7.80;99.90;;;;;;5051258;28;20339;-61
2023/12/15 09:37:46;;;;;;;43.10;12.30;;;7.80;99.90;;;;;;5050988;28;20442;-61
2023/12/15 09:40:13;;;;;;;46.20;12.57;;;7.80;99.90;;;;;;5050989;28;20029;-60
2023/12/15 09:42:39;;;;;;;37.07;11.90;;;7.80;99.90;;;;;;5051397;28;20033;-61
2023/12/15 09:45:05;;;;;;;34.17;11.13;;;7.80;99.90;;;;;;5053367;28;20459;-61
2023/12/15 09:47:34;;;;;;;43.10;12.13;;;7.80;99.90;;;;;;5054622;28;20085;-61
2023/12/15 09:50:04;;;;;;;38.78;12.23;;;7.80;99.90;;;;;;5054652;28;20029;-62
2023/12/15 09:52:34;;;;;;;;;;;7.80;99.90;;;;;;5055087;28;20040;-61
2023/12/15 09:54:59;;;;;;;44.77;10.87;;;7.80;99.90;;;;;;5054983;28;19917;-61
2023/12/15 09:57:26;;;;;;;45.73;11.60;;;7.90;99.90;;;;;;5054374;28;20032;-61
2023/12/15 09:59:52;;;;;;;35.60;12.73;;;7.90;99.90;;;;;;5054320;28;20040;-61
2023/12/15 10:02:18;;;;;;;42.03;12.03;;;7.90;99.90;;;;;;5054402;28;20025;-61
2023/12/15 10:04:44;;;;;;;39.93;12.87;;;7.90;99.90;;;;;;5054405;28;20473;-61
2023/12/15 10:07:10;;;;;;;41.93;13.93;;;7.90;99.90;;;;;;5054252;28;20043;-61
2023/12/15 10:09:39;;;;;;;41.43;12.97;;;8.00;99.90;;;;;;5054118;28;20037;-62
2023/12/15 10:12:11;;;;;;;34.88;11.68;;;8.00;99.90;;;;;;5054314;28;20029;-60
2023/12/15 10:14:38;;;;;;;42.67;12.10;;;8.00;99.90;;;;;;5054399;28;20112;-61
2023/12/15 10:17:09;;;;;;;47.13;14.00;;;8.00;99.90;;;;;;5054073;28;20037;-61
2023/12/15 10:19:35;;;;;;;36.67;11.60;;;8.10;99.90;;;;;;5054119;28;20028;-61
2023/12/15 10:22:02;;;;;;;41.07;12.17;;;8.10;99.90;;;;;;5052752;28;20040;-60
2023/12/15 10:24:28;;;;;;;44.57;12.80;;;8.10;99.90;;;;;;5054075;28;20497;-61
2023/12/15 10:26:53;;;;;;;36.60;12.70;;;8.10;99.90;;;;;;5053866;28;20078;-62
2023/12/15 10:29:20;;;;;;;43.90;14.13;;;8.20;99.90;;;;;;5053868;28;20033;-61
2023/12/15 10:31:49;;;;;;;40.10;13.90;;;8.30;99.90;;;;;;5053917;28;20036;-61
2023/12/15 10:34:15;;;;;;;39.83;13.13;;;8.30;99.90;;;;;;5053841;28;20037;-61
2023/12/15 10:36:44;;;;;;;37.90;13.03;;;8.30;99.90;;;;;;5053574;28;20083;-61
2023/12/15 10:39:12;;;;;;;;;;;8.30;99.90;;;;;;5054341;28;20036;-62
2023/12/15 10:41:39;;;;;;;42.90;12.27;;;8.30;99.90;;;;;;5054279;28;19932;-61
2023/12/15 10:44:06;;;;;;;35.30;12.30;;;8.30;99.90;;;;;;5053767;28;20068;-61
2023/12/15 10:46:33;;;;;;;45.73;12.60;;;8.30;99.90;;;;;;5053735;28;20470;-61
2023/12/15 10:48:59;;;;;;;40.90;13.50;;;8.30;99.90;;;;;;5053574;28;20033;-62
2023/12/15 10:51:26;;;;;;;37.07;13.47;;;8.30;99.90;;;;;;5053591;28;20029;-62
2023/12/15 10:53:56;;;;;;;37.43;12.23;;;8.30;99.90;;;;;;5053492;28;20470;-61
2023/12/15 10:56:22;;;;;;;35.37;12.73;;;8.30;99.90;;;;;;5053410;28;20401;-61
2023/12/15 10:58:49;;;;;;;41.53;13.10;;;8.30;99.90;;;;;;5053847;28;20056;-62
2023/12/15 11:01:16;;;;;;;40.67;12.80;;;8.30;99.90;;;;;;5053296;28;20037;-61
2023/12/15 11:03:43;;;;;;;38.60;12.30;;;8.40;99.90;;;;;;5053369;28;20033;-62
2023/12/15 11:06:09;;;;;;;40.47;13.57;;;8.40;99.90;;;;;;5053166;28;20029;-60
2023/12/15 11:08:35;;;;;;;33.80;11.53;;;8.50;99.90;;;;;;5053221;28;20039;-61
2023/12/15 11:11:07;;;;;;;37.30;12.37;;;8.60;99.90;;;;;;5053299;28;20510;-61
2023/12/15 11:14:04;;;;;;;38.73;12.13;;;8.60;99.90;;;;;;5053539;28;20029;-61
2023/12/15 11:16:30;;;;;;;37.10;12.93;;;8.70;99.90;;;;;;5037143;28;20106;-61
2023/12/15 11:18:58;;;;;;;36.23;12.50;;;8.70;99.90;;;;;;5052928;28;20116;-61
2023/12/15 11:21:23;;;;;;;42.00;13.47;;;8.70;99.90;;;;;;5052976;28;20492;-61
2023/12/15 11:24:03;;;;;;;43.83;12.73;;;8.80;99.90;;;;;;5053135;28;20108;-61
2023/12/15 11:26:34;;;;;;;38.90;12.15;;;8.80;99.90;;;;;;5052918;28;20033;-61
2023/12/15 11:29:12;;;;;;;38.67;13.07;;;8.80;99.90;;;;;;5052892;28;20040;-61
2023/12/15 11:31:40;;;;;;;41.97;12.77;;;8.70;99.90;;;;;;5052836;28;20036;-61
2023/12/15 11:34:07;;;;;;;38.30;12.93;;;8.80;99.90;;;;;;5053073;28;20458;-62
2023/12/15 11:36:41;;;;;;;36.17;12.10;;;8.80;99.90;;;;;;5052584;28;20466;-61
2023/12/15 11:39:11;;;;;;;39.70;13.73;;;8.80;99.90;;;;;;5053047;28;20071;-61
2023/12/15 11:41:41;;;;;;;38.47;12.53;;;8.90;99.90;;;;;;5052754;28;20029;-61
2023/12/15 11:44:06;;;;;;;40.50;12.43;;;8.90;99.90;;;;;;5052642;28;20025;-61
2023/12/15 11:46:33;;;;;;;40.67;13.93;;;9.00;99.90;;;;;;5052597;28;20021;-61
2023/12/15 11:49:00;;;;;;;35.40;12.53;;;9.00;99.90;;;;;;5052379;28;20044;-61
2023/12/15 11:51:28;;;;;;;37.67;13.47;;;9.10;99.90;;;;;;5052402;28;20029;-61
2023/12/15 11:53:55;;;;;;;42.33;13.97;;;9.10;99.90;;;;;;5052316;28;20112;-61
2023/12/15 11:56:20;;;;;;;34.83;12.80;;;9.10;99.90;;;;;;5052336;28;20486;-61
2023/12/15 11:58:46;;;;;;;32.17;11.67;;;9.10;99.90;;;;;;5052313;28;20036;-61
2023/12/15 12:01:14;;;;;;;38.33;12.03;;;9.10;99.90;;;;;;5052229;28;20066;-61
2023/12/15 12:03:40;;;;;;;38.40;11.97;;;9.10;99.90;;;;;;5052279;28;20037;-61
2023/12/15 12:06:08;;;;;;;37.97;12.70;;;9.20;99.90;;;;;;5052055;28;20112;-61
2023/12/15 12:08:35;;;;;;;40.40;12.97;;;9.10;99.90;;;;;;5051202;28;20029;-61
2023/12/15 12:11:02;;;;;;;44.50;13.13;;;9.10;99.90;;;;;;5052301;28;20516;-61
2023/12/15 12:13:33;;;;;;;38.50;12.33;;;9.00;99.90;;;;;;5052270;28;20469;-60
2023/12/15 12:16:00;;;;;;;36.40;12.83;;;9.10;99.90;;;;;;5051810;28;20041;-61
2023/12/15 12:18:26;;;;;;;42.97;13.97;;;9.10;99.90;;;;;;5051797;28;20482;-61
2023/12/15 12:20:57;;;;;;;38.93;12.87;;;9.10;99.90;;;;;;5051946;28;20108;-61
2023/12/15 12:23:24;;;;;;;38.23;12.47;;;9.20;99.90;;;;;;5052091;28;20083;-62
2023/12/15 12:25:51;;;;;;;36.53;13.07;;;9.20;99.90;;;;;;5051889;28;20048;-62
2023/12/15 12:28:21;;;;;;;35.67;13.07;;;9.30;99.90;;;;;;5051781;28;20064;-61
2023/12/15 12:30:48;;;;;;;;;;;9.30;99.90;;;;;;5052260;28;20040;-62
2023/12/15 12:33:14;;;;;;;37.87;11.57;;;9.50;99.90;;;;;;5051740;28;19959;-61
2023/12/15 12:35:40;;;;;;;41.63;12.73;;;9.50;99.90;;;;;;5051665;28;20029;-61
2023/12/15 12:38:07;;;;;;;41.23;14.00;;;9.60;99.90;;;;;;5051677;28;20454;-61
2023/12/15 12:40:33;;;;;;;45.23;14.27;;;9.70;99.90;;;;;;5051494;28;20477;-61